New Point, Indiana
Current Conditions -  °F | °C
As of 3:15 AM on Monday 24 Nov 2014 (Local Time) from KI67 Reporting Station
Overcast Overcast  
Wind Chill: 15°   Ceiling: 1900
Heat Index: 15°   Visibility: 10mi
Dew Point: 12°   Wind: 16mph
Humidity: 82%   Direction: 220°SW
Pressure: 29.32"   Gusts: 22mph
Location:  39.31°N, 85.33°W
Report Text: KI67 240815Z AUTO 22014G19KT 10SM BKN019 OVC024 15/12 A2932 RMK AO1
Loading
Personal Weather Stations






























Interactive Weather Map New forecast layout! Learn more

10-Day Weather Forecast

Advertisements
Track Severe Weather on mobile